.
WxDataArchive / Data Records for 2009-12-05
2009-12-04 December 2009 2009-12-06

Data Records for Saturday, 05 December 2009

Time	Temp	Chill	HIndex	Humid	Dewpt	 Wind 	HiWind	WindDir	Rain 	Barom 
-----	----	-----	------	-----	-----	------	------	-------	-----	----- 
00:00	24.4	24.4	24.4	64	14.0	0	1	315	0.00	30.240 
00:05	24.4	24.4	24.4	65	14.3	0	1	315	0.00	30.240 
00:10	24.4	24.4	24.4	65	14.3	1	3	315	0.00	30.240 
00:15	24.4	24.4	24.4	65	14.3	1	4	315	0.00	30.238 
00:20	24.4	24.4	24.4	65	14.3	1	3	270	0.00	30.238 
00:25	24.2	24.2	24.2	65	14.2	1	3	248	0.00	30.238 
00:30	24.2	24.2	24.2	65	14.2	0	1	248	0.00	30.229 
00:35	24.2	24.2	24.2	65	14.2	1	3	248	0.00	30.229 
00:40	24.1	24.1	24.1	65	14.1	1	3	248	0.00	30.229 
00:45	24.1	24.1	24.1	64	13.7	1	4	248	0.00	30.234 
00:50	24.1	24.1	24.1	64	13.7	0	2	248	0.00	30.234 
00:55	24.1	24.1	24.1	64	13.7	0	2	248	0.00	30.234 
01:00	24.1	24.1	24.1	65	14.1	1	3	248	0.00	30.235 
01:05	23.9	23.9	23.9	65	13.9	1	4	248	0.00	30.235 
01:10	23.9	23.9	23.9	65	13.9	0	2	248	0.00	30.235 
01:15	23.9	23.9	23.9	65	13.9	0	1	248	0.00	30.239 
01:20	23.9	23.9	23.9	65	13.9	0	2	248	0.00	30.239 
01:25	23.9	23.9	23.9	65	13.9	0	2	248	0.00	30.239 
01:30	23.9	23.9	23.9	65	13.9	0	2	248	0.00	30.237 
01:35	24.1	24.1	24.1	65	14.1	0	2	248	0.00	30.237 
01:40	24.1	24.1	24.1	64	13.7	0	1	248	0.00	30.237 
01:45	24.1	24.1	24.1	64	13.7	0	1	248	0.00	30.236 
01:50	24.1	24.1	24.1	64	13.7	0	4	248	0.00	30.236 
01:55	24.1	24.1	24.1	64	13.7	0	2	248	0.00	30.236 
02:00	24.1	24.1	24.1	64	13.7	0	1	248	0.00	30.238 
02:05	24.1	24.1	24.1	64	13.7	0	2	248	0.00	30.238 
02:10	23.9	23.9	23.9	64	13.5	0	2	338	0.00	30.238 
02:15	23.9	23.9	23.9	64	13.5	0	1	338	0.00	30.242 
02:20	23.9	23.9	23.9	63	13.2	0	1	338	0.00	30.242 
02:25	23.9	23.9	23.9	63	13.2	0	1	338	0.00	30.242 
02:30	23.9	23.9	23.9	63	13.2	0	1	338	0.00	30.241 
02:35	23.9	23.9	23.9	63	13.2	0	0	---	0.00	30.241 
02:40	23.8	23.8	23.8	62	12.7	0	2	338	0.00	30.241 
02:45	23.8	23.8	23.8	62	12.7	0	1	338	0.00	30.238 
02:50	23.8	23.8	23.8	63	13.1	0	2	315	0.00	30.238 
02:55	23.8	23.8	23.8	63	13.1	0	3	315	0.00	30.238 
03:00	23.8	23.8	23.8	63	13.1	0	3	248	0.00	30.242 
03:05	23.8	23.8	23.8	63	13.1	0	1	248	0.00	30.242 
03:10	23.6	23.6	23.6	62	12.5	0	2	248	0.00	30.242 
03:15	23.6	23.6	23.6	62	12.5	0	2	248	0.00	30.241 
03:20	23.5	23.5	23.5	61	12.1	0	2	248	0.00	30.241 
03:25	23.5	23.5	23.5	61	12.1	0	1	248	0.00	30.241 
03:30	23.5	23.5	23.5	61	12.1	0	0	---	0.00	30.241 
03:35	23.5	23.5	23.5	62	12.4	0	1	248	0.00	30.241 
03:40	23.5	23.5	23.5	63	12.8	0	1	248	0.00	30.241 
03:45	23.5	23.5	23.5	62	12.4	0	2	248	0.00	30.241 
03:50	23.5	23.5	23.5	62	12.4	0	2	248	0.00	30.241 
03:55	23.5	23.5	23.5	62	12.4	0	1	248	0.00	30.241 
04:00	23.5	23.5	23.5	62	12.4	0	2	248	0.00	30.235 
04:05	23.5	23.5	23.5	62	12.4	0	1	248	0.00	30.235 
04:10	23.5	23.5	23.5	62	12.4	0	2	248	0.00	30.235 
04:15	23.5	23.5	23.5	63	12.8	0	1	248	0.00	30.224 
04:20	23.5	23.5	23.5	63	12.8	0	1	248	0.00	30.224 
04:25	23.5	23.5	23.5	63	12.8	0	1	248	0.00	30.224 
04:30	23.5	23.5	23.5	63	12.8	0	0	---	0.00	30.224 
04:35	23.5	23.5	23.5	63	12.8	0	1	248	0.00	30.224 
04:40	23.5	23.5	23.5	63	12.8	0	1	248	0.00	30.224 
04:45	23.5	23.5	23.5	63	12.8	0	1	248	0.00	30.220 
04:50	23.5	23.5	23.5	63	12.8	0	3	248	0.00	30.220 
04:55	23.3	23.3	23.3	62	12.2	0	1	248	0.00	30.220 
05:00	23.3	23.3	23.3	62	12.2	0	0	---	0.00	30.218 
05:05	23.3	23.3	23.3	63	12.6	0	0	---	0.00	30.218 
05:10	23.3	23.3	23.3	63	12.6	0	0	---	0.00	30.218 
05:15	23.5	23.5	23.5	64	13.1	0	3	248	0.00	30.218 
05:20	23.5	23.5	23.5	63	12.8	0	1	248	0.00	30.218 
05:25	23.5	23.5	23.5	63	12.8	1	3	248	0.00	30.218 
05:30	23.5	23.5	23.5	63	12.8	0	1	248	0.00	30.222 
05:35	23.5	23.5	23.5	64	13.1	0	0	---	0.00	30.222 
05:40	23.5	23.5	23.5	64	13.1	0	1	248	0.00	30.222 
05:45	23.5	23.5	23.5	63	12.8	0	1	248	0.00	30.221 
05:50	23.5	23.5	23.5	63	12.8	0	1	248	0.00	30.221 
05:55	23.5	23.5	23.5	64	13.1	0	1	248	0.00	30.221 
06:00	23.5	23.5	23.5	64	13.1	0	0	---	0.00	30.216 
06:05	23.5	23.5	23.5	64	13.1	0	0	---	0.00	30.216 
06:10	23.5	23.5	23.5	65	13.5	0	0	---	0.00	30.216 
06:15	23.5	23.5	23.5	64	13.1	0	1	248	0.00	30.212 
06:20	23.5	23.5	23.5	64	13.1	0	1	248	0.00	30.212 
06:25	23.5	23.5	23.5	64	13.1	0	2	248	0.00	30.212 
06:30	23.5	23.5	23.5	64	13.1	0	3	248	0.00	30.208 
06:35	23.3	23.3	23.3	63	12.6	0	2	248	0.00	30.208 
06:40	23.2	23.2	23.2	64	12.9	0	3	248	0.00	30.208 
06:45	23.2	23.2	23.2	64	12.9	0	2	248	0.00	30.207 
06:50	23.0	23.0	23.0	64	12.7	0	2	248	0.00	30.207 
06:55	23.0	23.0	23.0	64	12.7	0	3	248	0.00	30.207 
07:00	22.9	22.9	22.9	64	12.6	0	1	248	0.00	30.210 
07:05	22.9	22.9	22.9	64	12.6	0	1	248	0.00	30.210 
07:10	22.9	22.9	22.9	65	12.9	0	1	248	0.00	30.210 
07:15	22.7	22.7	22.7	65	12.7	0	1	248	0.00	30.212 
07:20	22.7	22.7	22.7	65	12.7	0	2	248	0.00	30.212 
07:25	22.7	22.7	22.7	65	12.7	0	3	248	0.00	30.212 
07:30	22.9	22.9	22.9	65	12.9	0	3	248	0.00	30.213 
07:35	22.9	22.9	22.9	65	12.9	0	1	248	0.00	30.213 
07:40	22.9	22.9	22.9	65	12.9	0	2	248	0.00	30.213 
07:45	22.9	22.9	22.9	65	12.9	0	3	248	0.00	30.212 
07:50	22.9	22.9	22.9	65	12.9	0	1	248	0.00	30.212 
07:55	22.7	22.7	22.7	65	12.7	0	2	248	0.00	30.212 
08:00	22.5	22.5	22.5	65	12.5	0	2	248	0.00	30.212 
08:05	22.2	22.2	22.2	65	12.3	0	1	248	0.00	30.212 
08:10	22.1	22.1	22.1	65	12.2	0	1	248	0.00	30.212 
08:15	21.9	21.9	21.9	65	12.0	0	0	---	0.00	30.213 
08:20	21.8	21.8	21.8	66	12.2	0	1	248	0.00	30.213 
08:25	21.6	21.6	21.6	66	12.0	0	1	248	0.00	30.213 
08:30	21.8	21.8	21.8	66	12.2	0	1	248	0.00	30.214 
08:35	21.8	21.8	21.8	66	12.2	0	1	248	0.00	30.214 
08:40	21.9	21.9	21.9	66	12.3	0	1	248	0.00	30.214 
08:45	22.1	22.1	22.1	67	12.8	0	0	---	0.00	30.213 
08:50	22.2	22.2	22.2	67	12.9	0	1	248	0.00	30.213 
08:55	22.4	22.4	22.4	67	13.1	0	3	248	0.00	30.213 
09:00	22.7	22.7	22.7	66	13.1	1	2	248	0.00	30.212 
09:05	23.0	23.0	23.0	65	13.0	1	2	248	0.00	30.212 
09:10	23.3	23.3	23.3	65	13.3	1	3	248	0.00	30.212 
09:15	23.6	23.6	23.6	64	13.2	1	3	248	0.00	30.214 
09:20	23.8	23.8	23.8	63	13.1	1	4	270	0.00	30.214 
09:25	24.1	24.1	24.1	63	13.4	1	2	248	0.00	30.214 
09:30	24.2	24.2	24.2	63	13.4	1	3	248	0.00	30.219 
09:35	24.4	24.4	24.4	63	13.6	2	4	270	0.00	30.219 
09:40	24.4	24.4	24.4	62	13.3	2	5	270	0.00	30.219 
09:45	24.5	24.5	24.5	62	13.4	2	5	225	0.00	30.224 
09:50	24.7	24.7	24.7	62	13.6	2	5	248	0.00	30.224 
09:55	24.8	24.8	24.8	62	13.7	1	3	248	0.00	30.224 
10:00	24.8	24.8	24.8	61	13.3	2	6	270	0.00	30.225 
10:05	24.8	24.8	24.8	61	13.3	2	5	248	0.00	30.225 
10:10	24.8	24.8	24.8	61	13.3	1	4	248	0.00	30.225 
10:15	25.1	25.1	25.1	62	13.9	1	3	248	0.00	30.226 
10:20	25.1	25.1	25.1	61	13.6	1	5	248	0.00	30.226 
10:25	25.0	25.0	25.0	61	13.5	2	4	270	0.00	30.226 
10:30	25.0	25.0	25.0	61	13.5	1	6	225	0.00	30.228 
10:35	25.0	25.0	25.0	61	13.5	2	5	248	0.00	30.228 
10:40	25.1	25.1	25.1	61	13.6	2	5	248	0.00	30.228 
10:45	25.4	25.4	25.4	61	13.9	1	4	248	0.00	30.233 
10:50	25.6	25.6	25.6	61	14.0	1	5	248	0.00	30.233 
10:55	25.6	25.6	25.6	60	13.7	2	6	248	0.00	30.233 
11:00	25.6	25.6	25.6	61	14.0	1	4	248	0.00	30.231 
11:05	25.6	25.6	25.6	61	14.0	2	6	270	0.00	30.231 
11:10	25.7	25.7	25.7	60	13.8	2	4	248	0.00	30.231 
11:15	25.6	25.6	25.6	60	13.7	2	5	248	0.00	30.228 
11:20	25.7	25.7	25.7	61	14.1	2	4	248	0.00	30.228 
11:25	25.8	25.8	25.8	60	13.9	1	4	248	0.00	30.228 
11:30	25.8	25.8	25.8	60	13.9	1	3	248	0.00	30.227 
11:35	25.8	25.8	25.8	60	13.9	2	5	248	0.00	30.227 
11:40	25.8	25.8	25.8	60	13.9	1	4	248	0.00	30.227 
11:45	26.0	26.0	26.0	59	13.7	1	4	248	0.00	30.225 
11:50	25.8	25.8	25.8	59	13.5	1	4	248	0.00	30.225 
11:55	25.8	25.8	25.8	58	13.1	2	5	248	0.00	30.225 
12:00	25.8	25.8	25.8	58	13.1	2	6	248	0.00	30.220 
12:05	26.0	26.0	26.0	58	13.3	1	3	248	0.00	30.220 
12:10	25.8	25.8	25.8	56	12.3	2	6	248	0.00	30.220 
12:15	25.7	25.7	25.7	56	12.2	2	4	248	0.00	30.212 
12:20	25.7	25.7	25.7	57	12.6	1	3	248	0.00	30.212 
12:25	25.8	25.8	25.8	57	12.7	1	4	248	0.00	30.212 
12:30	26.1	26.1	26.1	58	13.4	2	5	248	0.00	30.209 
12:35	26.3	26.3	26.3	57	13.2	1	4	248	0.00	30.209 
12:40	26.4	26.4	26.4	57	13.3	1	4	248	0.00	30.209 
12:45	26.3	26.3	26.3	57	13.2	1	3	270	0.00	30.210 
12:50	26.1	26.1	26.1	56	12.6	1	3	315	0.00	30.210 
12:55	26.1	26.1	26.1	56	12.6	1	3	338	0.00	30.210 
13:00	26.1	26.1	26.1	56	12.6	1	3	338	0.00	30.211 
13:05	26.0	26.0	26.0	57	12.9	1	3	0	0.00	30.211 
13:10	26.0	26.0	26.0	57	12.9	1	4	0	0.00	30.211 
13:15	26.0	26.0	26.0	56	12.5	1	3	315	0.00	30.205 
13:20	26.0	26.0	26.0	56	12.5	0	2	315	0.00	30.205 
13:25	26.1	26.1	26.1	57	13.0	1	3	270	0.00	30.205 
13:30	26.1	26.1	26.1	56	12.6	1	3	338	0.00	30.201 
13:35	26.3	26.3	26.3	56	12.8	1	3	248	0.00	30.201 
13:40	26.4	26.4	26.4	56	12.9	1	4	248	0.00	30.201 
13:45	26.4	26.4	26.4	56	12.9	2	6	248	0.00	30.197 
13:50	26.6	26.6	26.6	56	13.0	1	3	248	0.00	30.197 
13:55	26.6	26.6	26.6	56	13.0	1	4	248	0.00	30.197 
14:00	26.7	26.7	26.7	57	13.5	1	3	248	0.00	30.199 
14:05	26.7	26.7	26.7	56	13.1	1	3	248	0.00	30.199 
14:10	26.7	26.7	26.7	56	13.1	1	3	270	0.00	30.199 
14:15	26.7	26.7	26.7	55	12.7	1	2	270	0.00	30.198 
14:20	26.7	26.7	26.7	56	13.1	1	4	270	0.00	30.198 
14:25	26.7	26.7	26.7	56	13.1	1	2	248	0.00	30.198 
14:30	26.7	26.7	26.7	56	13.1	0	3	248	0.00	30.197 
14:35	26.9	26.9	26.9	56	13.3	0	3	338	0.00	30.197 
14:40	27.0	27.0	27.0	56	13.4	1	4	248	0.00	30.197 
14:45	27.2	27.2	27.2	54	12.8	1	3	338	0.00	30.195 
14:50	27.5	27.5	27.5	55	13.5	1	4	270	0.00	30.195 
14:55	27.6	27.6	27.6	55	13.6	1	3	225	0.00	30.195 
15:00	27.8	27.8	27.8	54	13.3	1	4	292	0.00	30.196 
15:05	27.8	27.8	27.8	54	13.3	1	3	270	0.00	30.196 
15:10	28.1	28.1	28.1	54	13.6	0	2	270	0.00	30.196 
15:15	28.1	28.1	28.1	54	13.6	0	2	248	0.00	30.195 
15:20	27.8	27.8	27.8	53	12.9	0	2	248	0.00	30.195 
15:25	27.3	27.3	27.3	54	12.9	1	3	0	0.00	30.195 
15:30	27.0	27.0	27.0	54	12.6	1	2	338	0.00	30.203 
15:35	26.9	26.9	26.9	55	12.9	0	2	338	0.00	30.203 
15:40	26.9	26.9	26.9	55	12.9	0	1	338	0.00	30.203 
15:45	26.9	26.9	26.9	56	13.3	0	1	338	0.00	30.197 
15:50	26.9	26.9	26.9	55	12.9	0	2	338	0.00	30.197 
15:55	26.7	26.7	26.7	54	12.3	0	1	338	0.00	30.197 
16:00	26.7	26.7	26.7	54	12.3	0	2	338	0.00	30.208 
16:05	26.7	26.7	26.7	54	12.3	0	1	248	0.00	30.208 
16:10	26.7	26.7	26.7	54	12.3	0	1	248	0.00	30.208 
16:15	26.9	26.9	26.9	54	12.5	0	1	248	0.00	30.205 
16:20	26.9	26.9	26.9	54	12.5	0	0	---	0.00	30.205 
16:25	27.0	27.0	27.0	54	12.6	0	0	---	0.00	30.205 
16:30	27.0	27.0	27.0	54	12.6	0	1	248	0.00	30.206 
16:35	27.0	27.0	27.0	54	12.6	0	1	248	0.00	30.206 
16:40	27.0	27.0	27.0	54	12.6	0	1	248	0.00	30.206 
16:45	27.0	27.0	27.0	54	12.6	0	1	248	0.00	30.208 
16:50	27.0	27.0	27.0	54	12.6	0	1	248	0.00	30.208 
16:55	27.0	27.0	27.0	54	12.6	0	1	248	0.00	30.208 
17:00	27.0	27.0	27.0	54	12.6	0	1	248	0.00	30.211 
17:05	26.9	26.9	26.9	54	12.5	0	1	248	0.00	30.211 
17:10	26.9	26.9	26.9	54	12.5	0	1	248	0.00	30.211 
17:15	26.9	26.9	26.9	54	12.5	0	1	248	0.00	30.210 
17:20	27.0	27.0	27.0	54	12.6	0	0	---	0.00	30.210 
17:25	27.0	27.0	27.0	54	12.6	0	1	248	0.00	30.210 
17:30	27.0	27.0	27.0	54	12.6	0	3	248	0.00	30.214 
17:35	27.0	27.0	27.0	54	12.6	1	3	248	0.00	30.214 
17:40	27.0	27.0	27.0	53	12.2	0	2	248	0.00	30.214 
17:45	27.0	27.0	27.0	53	12.2	0	3	248	0.00	30.221 
17:50	27.0	27.0	27.0	54	12.6	0	2	248	0.00	30.221 
17:55	27.0	27.0	27.0	55	13.0	0	1	248	0.00	30.221 
18:00	27.0	27.0	27.0	55	13.0	0	1	248	0.00	30.223 
18:05	27.0	27.0	27.0	55	13.0	0	1	248	0.00	30.223 
18:10	26.9	26.9	26.9	54	12.5	0	3	248	0.00	30.223 
18:15	26.9	26.9	26.9	53	12.1	0	1	248	0.00	30.221 
18:20	26.9	26.9	26.9	53	12.1	0	1	248	0.00	30.221 
18:25	26.7	26.7	26.7	54	12.3	0	2	248	0.00	30.221 
18:30	26.7	26.7	26.7	54	12.3	0	1	248	0.00	30.226 
18:35	26.7	26.7	26.7	54	12.3	0	1	248	0.00	30.226 
18:40	26.7	26.7	26.7	54	12.3	0	1	248	0.00	30.226 
18:45	26.6	26.6	26.6	54	12.2	0	0	---	0.00	30.228 
18:50	26.4	26.4	26.4	54	12.0	0	1	248	0.00	30.228 
18:55	26.4	26.4	26.4	54	12.0	0	0	---	0.00	30.228 
19:00	26.3	26.3	26.3	55	12.4	0	0	---	0.00	30.231 
19:05	26.1	26.1	26.1	56	12.6	0	0	---	0.00	30.231 
19:10	26.0	26.0	26.0	56	12.5	0	0	---	0.00	30.231 
19:15	25.8	25.8	25.8	56	12.3	0	0	---	0.00	30.226 
19:20	25.6	25.6	25.6	56	12.1	0	0	---	0.00	30.226 
19:25	25.3	25.3	25.3	58	12.6	0	0	---	0.00	30.226 
19:30	25.0	25.0	25.0	60	13.1	0	0	---	0.00	30.225 
19:35	24.7	24.7	24.7	60	12.8	0	0	---	0.00	30.225 
19:40	24.2	24.2	24.2	60	12.3	0	0	---	0.00	30.225 
19:45	23.9	23.9	23.9	62	12.8	0	0	---	0.00	30.222 
19:50	23.6	23.6	23.6	62	12.5	0	0	---	0.00	30.222 
19:55	23.3	23.3	23.3	64	13.0	0	0	---	0.00	30.222 
20:00	23.0	23.0	23.0	64	12.7	0	0	---	0.00	30.220 
20:05	22.7	22.7	22.7	64	12.4	0	0	---	0.00	30.220 
20:10	22.4	22.4	22.4	65	12.4	0	0	---	0.00	30.220 
20:15	22.2	22.2	22.2	66	12.6	0	0	---	0.00	30.221 
20:20	21.9	21.9	21.9	66	12.3	0	0	---	0.00	30.221 
20:25	21.8	21.8	21.8	66	12.2	0	0	---	0.00	30.221 
20:30	21.4	21.4	21.4	66	11.8	0	0	---	0.00	30.222 
20:35	21.3	21.3	21.3	68	12.4	0	0	---	0.00	30.222 
20:40	21.0	21.0	21.0	68	12.1	0	0	---	0.00	30.222 
20:45	20.6	20.6	20.6	68	11.7	0	0	---	0.00	30.226 
20:50	20.5	20.5	20.5	69	12.0	0	0	---	0.00	30.226 
20:55	20.3	20.3	20.3	69	11.8	0	0	---	0.00	30.226 
21:00	20.0	20.0	20.0	70	11.8	0	0	---	0.00	30.233 
21:05	19.9	19.9	19.9	71	12.0	0	0	---	0.00	30.233 
21:10	19.7	19.7	19.7	71	11.8	0	0	---	0.00	30.233 
21:15	19.5	19.5	19.5	72	12.0	0	0	---	0.00	30.232 
21:20	19.2	19.2	19.2	72	11.7	0	0	---	0.00	30.232 
21:25	19.1	19.1	19.1	74	12.2	0	0	---	0.00	30.232 
21:30	19.1	19.1	19.1	75	12.5	0	0	---	0.00	30.233 
21:35	18.9	18.9	18.9	74	12.0	0	0	---	0.00	30.233 
21:40	18.8	18.8	18.8	75	12.2	0	0	---	0.00	30.233 
21:45	18.6	18.6	18.6	76	12.3	0	0	---	0.00	30.241 
21:50	18.4	18.4	18.4	76	12.1	0	0	---	0.00	30.241 
21:55	18.3	18.3	18.3	76	12.0	0	0	---	0.00	30.241 
22:00	18.1	18.1	18.1	77	12.1	0	0	---	0.00	30.249 
22:05	18.0	18.0	18.0	77	12.0	0	0	---	0.00	30.249 
22:10	18.0	18.0	18.0	77	12.0	0	0	---	0.00	30.249 
22:15	17.8	17.8	17.8	78	12.1	0	0	---	0.00	30.243 
22:20	17.7	17.7	17.7	78	12.0	0	0	---	0.00	30.243 
22:25	17.5	17.5	17.5	78	11.8	0	0	---	0.00	30.243 
22:30	17.3	17.3	17.3	78	11.6	0	0	---	0.00	30.246 
22:35	17.3	17.3	17.3	79	11.9	0	0	---	0.00	30.246 
22:40	17.2	17.2	17.2	79	11.8	0	0	---	0.00	30.246 
22:45	17.2	17.2	17.2	80	12.1	0	0	---	0.00	30.251 
22:50	17.2	17.2	17.2	80	12.1	0	0	---	0.00	30.251 
22:55	17.0	17.0	17.0	81	12.2	0	0	---	0.00	30.251 
23:00	17.0	17.0	17.0	81	12.2	0	0	---	0.00	30.259 
23:05	16.9	16.9	16.9	81	12.1	0	0	---	0.00	30.259 
23:10	16.7	16.7	16.7	81	11.9	0	0	---	0.00	30.259 
23:15	16.7	16.7	16.7	82	12.2	0	0	---	0.00	30.265 
23:20	16.7	16.7	16.7	82	12.2	0	0	---	0.00	30.265 
23:25	16.7	16.7	16.7	82	12.2	0	0	---	0.00	30.265 
23:30	16.7	16.7	16.7	83	12.5	0	0	---	0.00	30.271 
23:35	16.7	16.7	16.7	83	12.5	0	0	---	0.00	30.271 
23:40	16.5	16.5	16.5	83	12.3	0	0	---	0.00	30.271 
23:45	16.5	16.5	16.5	83	12.3	0	0	---	0.00	30.271 
23:50	16.4	16.4	16.4	83	12.2	0	0	---	0.00	30.271 
23:55	16.4	16.4	16.4	83	12.2	0	0	---	0.00	30.271 

CoCoRaHS
IN-AL-39
A2 Web Hosting
Creative Commons License
GoDaddy
search engine by freefind advanced

loaded 2018-11-16 01:16:07 • last modified 2010-11-18 10:43:29
Privacy PolicyDisclaimer
• wx.awcolley.com is powered by PmWiki v.2002016 •
• all content (unless otherwise noted) © 2018 A W Colley